sensor_id;sensor_type;location;lat;lon;timestamp;P1;durP1;ratioP1;P2;durP2;ratioP2
21018;SDS011;10667;51.056;3.732;2022-09-03T00:00:12;16.15;;;13.90;;
21018;SDS011;10667;51.056;3.732;2022-09-03T00:08:16;17.08;;;14.50;;
21018;SDS011;10667;51.056;3.732;2022-09-03T00:10:55;16.90;;;14.50;;
21018;SDS011;10667;51.056;3.732;2022-09-03T00:16:57;19.67;;;15.07;;
21018;SDS011;10667;51.056;3.732;2022-09-03T00:19:28;17.33;;;14.90;;
21018;SDS011;10667;51.056;3.732;2022-09-03T00:22:19;18.35;;;14.43;;
21018;SDS011;10667;51.056;3.732;2022-09-03T00:24:46;19.25;;;14.98;;
21018;SDS011;10667;51.056;3.732;2022-09-03T00:27:18;16.13;;;14.13;;
21018;SDS011;10667;51.056;3.732;2022-09-03T00:29:54;16.95;;;15.25;;
21018;SDS011;10667;51.056;3.732;2022-09-03T00:32:39;19.23;;;15.73;;
21018;SDS011;10667;51.056;3.732;2022-09-03T00:35:16;19.30;;;14.98;;
21018;SDS011;10667;51.056;3.732;2022-09-03T00:37:55;18.15;;;14.65;;
21018;SDS011;10667;51.056;3.732;2022-09-03T00:45:48;18.38;;;14.93;;
21018;SDS011;10667;51.056;3.732;2022-09-03T00:48:29;16.95;;;13.95;;
21018;SDS011;10667;51.056;3.732;2022-09-03T01:01:41;17.58;;;13.75;;
21018;SDS011;10667;51.056;3.732;2022-09-03T01:09:46;14.52;;;12.45;;
21018;SDS011;10667;51.056;3.732;2022-09-03T01:33:56;15.05;;;13.27;;
21018;SDS011;10667;51.056;3.732;2022-09-03T01:39:03;15.80;;;14.13;;
21018;SDS011;10667;51.056;3.732;2022-09-03T01:44:52;18.50;;;14.52;;
21018;SDS011;10667;51.056;3.732;2022-09-03T01:50:06;19.90;;;14.57;;
21018;SDS011;10667;51.056;3.732;2022-09-03T01:52:42;17.58;;;14.45;;
21018;SDS011;10667;51.056;3.732;2022-09-03T01:58:53;17.80;;;13.18;;
21018;SDS011;10667;51.056;3.732;2022-09-03T02:01:36;17.08;;;14.02;;
21018;SDS011;10667;51.056;3.732;2022-09-03T02:04:21;17.70;;;13.75;;
21018;SDS011;10667;51.056;3.732;2022-09-03T02:06:52;17.25;;;13.65;;
21018;SDS011;10667;51.056;3.732;2022-09-03T02:09:21;14.95;;;12.30;;
21018;SDS011;10667;51.056;3.732;2022-09-03T02:11:54;15.50;;;12.70;;
21018;SDS011;10667;51.056;3.732;2022-09-03T02:14:24;13.63;;;12.15;;
21018;SDS011;10667;51.056;3.732;2022-09-03T02:16:52;14.10;;;12.23;;
21018;SDS011;10667;51.056;3.732;2022-09-03T02:19:22;14.82;;;12.65;;
21018;SDS011;10667;51.056;3.732;2022-09-03T02:21:52;14.55;;;11.82;;
21018;SDS011;10667;51.056;3.732;2022-09-03T02:24:20;15.95;;;12.45;;
21018;SDS011;10667;51.056;3.732;2022-09-03T02:26:46;14.75;;;12.07;;
21018;SDS011;10667;51.056;3.732;2022-09-03T02:29:13;15.32;;;12.60;;
21018;SDS011;10667;51.056;3.732;2022-09-03T02:31:39;12.88;;;11.48;;
21018;SDS011;10667;51.056;3.732;2022-09-03T02:34:05;13.55;;;12.00;;
21018;SDS011;10667;51.056;3.732;2022-09-03T02:36:39;15.25;;;12.88;;
21018;SDS011;10667;51.056;3.732;2022-09-03T02:39:09;14.27;;;12.77;;
21018;SDS011;10667;51.056;3.732;2022-09-03T02:41:36;14.63;;;12.60;;
21018;SDS011;10667;51.056;3.732;2022-09-03T02:44:19;14.68;;;13.13;;
21018;SDS011;10667;51.056;3.732;2022-09-03T02:47:02;14.43;;;12.45;;
21018;SDS011;10667;51.056;3.732;2022-09-03T02:49:29;16.20;;;12.63;;
21018;SDS011;10667;51.056;3.732;2022-09-03T02:52:04;18.55;;;13.13;;
21018;SDS011;10667;51.056;3.732;2022-09-03T02:54:34;14.73;;;11.98;;
21018;SDS011;10667;51.056;3.732;2022-09-03T02:57:04;14.68;;;13.07;;
21018;SDS011;10667;51.056;3.732;2022-09-03T02:59:33;14.27;;;12.18;;
21018;SDS011;10667;51.056;3.732;2022-09-03T03:02:00;19.42;;;13.30;;
21018;SDS011;10667;51.056;3.732;2022-09-03T03:04:26;20.13;;;13.65;;
21018;SDS011;10667;51.056;3.732;2022-09-03T03:06:51;15.82;;;13.68;;
21018;SDS011;10667;51.056;3.732;2022-09-03T03:09:17;15.85;;;12.98;;
21018;SDS011;10667;51.056;3.732;2022-09-03T03:11:43;16.58;;;12.82;;
21018;SDS011;10667;51.056;3.732;2022-09-03T03:14:09;17.52;;;12.82;;
21018;SDS011;10667;51.056;3.732;2022-09-03T03:16:35;14.68;;;12.77;;
21018;SDS011;10667;51.056;3.732;2022-09-03T03:19:00;13.20;;;11.85;;
21018;SDS011;10667;51.056;3.732;2022-09-03T03:21:26;16.85;;;12.50;;
21018;SDS011;10667;51.056;3.732;2022-09-03T03:23:52;16.13;;;13.23;;
21018;SDS011;10667;51.056;3.732;2022-09-03T03:26:18;17.08;;;13.50;;
21018;SDS011;10667;51.056;3.732;2022-09-03T03:28:46;15.50;;;12.50;;
21018;SDS011;10667;51.056;3.732;2022-09-03T03:31:14;15.18;;;12.73;;
21018;SDS011;10667;51.056;3.732;2022-09-03T03:33:42;13.95;;;12.23;;
21018;SDS011;10667;51.056;3.732;2022-09-03T03:38:36;14.95;;;11.48;;
21018;SDS011;10667;51.056;3.732;2022-09-03T03:43:35;12.90;;;11.60;;
21018;SDS011;10667;51.056;3.732;2022-09-03T03:46:01;15.07;;;11.82;;
21018;SDS011;10667;51.056;3.732;2022-09-03T03:48:26;13.82;;;12.43;;
21018;SDS011;10667;51.056;3.732;2022-09-03T03:50:52;16.65;;;12.45;;
21018;SDS011;10667;51.056;3.732;2022-09-03T03:53:18;16.30;;;12.32;;
21018;SDS011;10667;51.056;3.732;2022-09-03T03:55:53;16.40;;;11.98;;
21018;SDS011;10667;51.056;3.732;2022-09-03T03:58:22;14.82;;;11.68;;
21018;SDS011;10667;51.056;3.732;2022-09-03T04:00:51;15.07;;;10.38;;
21018;SDS011;10667;51.056;3.732;2022-09-03T04:03:17;15.15;;;10.48;;
21018;SDS011;10667;51.056;3.732;2022-09-03T04:05:53;11.57;;;10.43;;
21018;SDS011;10667;51.056;3.732;2022-09-03T04:08:20;12.70;;;10.30;;
21018;SDS011;10667;51.056;3.732;2022-09-03T04:10:46;16.33;;;11.35;;
21018;SDS011;10667;51.056;3.732;2022-09-03T04:13:12;12.35;;;10.35;;
21018;SDS011;10667;51.056;3.732;2022-09-03T04:15:38;13.52;;;10.80;;
21018;SDS011;10667;51.056;3.732;2022-09-03T04:18:04;12.35;;;10.65;;
21018;SDS011;10667;51.056;3.732;2022-09-03T04:20:30;16.42;;;12.10;;
21018;SDS011;10667;51.056;3.732;2022-09-03T04:22:59;15.93;;;11.43;;
21018;SDS011;10667;51.056;3.732;2022-09-03T04:25:25;22.30;;;12.85;;
21018;SDS011;10667;51.056;3.732;2022-09-03T04:27:51;15.23;;;12.45;;
21018;SDS011;10667;51.056;3.732;2022-09-03T04:30:17;15.05;;;13.07;;
21018;SDS011;10667;51.056;3.732;2022-09-03T04:32:43;14.40;;;12.95;;
21018;SDS011;10667;51.056;3.732;2022-09-03T04:35:18;15.50;;;13.30;;
21018;SDS011;10667;51.056;3.732;2022-09-03T04:37:45;17.65;;;14.40;;
21018;SDS011;10667;51.056;3.732;2022-09-03T04:40:11;16.67;;;14.05;;
21018;SDS011;10667;51.056;3.732;2022-09-03T04:42:36;16.60;;;14.52;;
21018;SDS011;10667;51.056;3.732;2022-09-03T04:45:02;17.95;;;14.23;;
21018;SDS011;10667;51.056;3.732;2022-09-03T04:47:28;19.67;;;14.50;;
21018;SDS011;10667;51.056;3.732;2022-09-03T04:49:54;18.90;;;15.27;;
21018;SDS011;10667;51.056;3.732;2022-09-03T04:52:19;18.23;;;15.23;;
21018;SDS011;10667;51.056;3.732;2022-09-03T04:54:45;16.98;;;14.80;;
21018;SDS011;10667;51.056;3.732;2022-09-03T04:57:11;17.83;;;13.50;;
21018;SDS011;10667;51.056;3.732;2022-09-03T04:59:37;16.65;;;14.40;;
21018;SDS011;10667;51.056;3.732;2022-09-03T05:02:05;19.25;;;15.50;;
21018;SDS011;10667;51.056;3.732;2022-09-03T05:04:32;20.65;;;15.48;;
21018;SDS011;10667;51.056;3.732;2022-09-03T05:06:57;20.40;;;14.85;;
21018;SDS011;10667;51.056;3.732;2022-09-03T05:09:23;15.10;;;13.55;;
21018;SDS011;10667;51.056;3.732;2022-09-03T05:11:49;16.52;;;14.32;;
21018;SDS011;10667;51.056;3.732;2022-09-03T05:14:14;17.17;;;15.23;;
21018;SDS011;10667;51.056;3.732;2022-09-03T05:16:40;18.30;;;14.60;;
21018;SDS011;10667;51.056;3.732;2022-09-03T05:19:06;27.23;;;15.95;;
21018;SDS011;10667;51.056;3.732;2022-09-03T05:21:32;16.92;;;14.75;;
21018;SDS011;10667;51.056;3.732;2022-09-03T05:24:00;19.52;;;14.73;;
21018;SDS011;10667;51.056;3.732;2022-09-03T05:26:27;19.85;;;15.68;;
21018;SDS011;10667;51.056;3.732;2022-09-03T05:28:55;23.80;;;15.38;;
21018;SDS011;10667;51.056;3.732;2022-09-03T05:31:26;16.88;;;14.75;;
21018;SDS011;10667;51.056;3.732;2022-09-03T05:33:54;17.35;;;14.70;;
21018;SDS011;10667;51.056;3.732;2022-09-03T05:36:24;18.13;;;14.60;;
21018;SDS011;10667;51.056;3.732;2022-09-03T05:38:51;20.60;;;15.77;;
21018;SDS011;10667;51.056;3.732;2022-09-03T05:41:20;18.55;;;15.40;;
21018;SDS011;10667;51.056;3.732;2022-09-03T05:43:47;19.35;;;15.63;;
21018;SDS011;10667;51.056;3.732;2022-09-03T05:46:24;19.35;;;16.45;;
21018;SDS011;10667;51.056;3.732;2022-09-03T05:48:55;21.38;;;16.15;;
21018;SDS011;10667;51.056;3.732;2022-09-03T05:51:25;20.75;;;17.17;;
21018;SDS011;10667;51.056;3.732;2022-09-03T05:53:51;23.48;;;16.95;;
21018;SDS011;10667;51.056;3.732;2022-09-03T05:56:21;22.92;;;17.08;;
21018;SDS011;10667;51.056;3.732;2022-09-03T05:58:48;22.35;;;15.77;;
21018;SDS011;10667;51.056;3.732;2022-09-03T06:03:57;24.20;;;17.33;;
21018;SDS011;10667;51.056;3.732;2022-09-03T06:06:28;18.35;;;16.10;;
21018;SDS011;10667;51.056;3.732;2022-09-03T06:08:56;20.20;;;16.60;;
21018;SDS011;10667;51.056;3.732;2022-09-03T06:11:26;22.45;;;17.05;;
21018;SDS011;10667;51.056;3.732;2022-09-03T06:13:56;23.00;;;16.58;;
21018;SDS011;10667;51.056;3.732;2022-09-03T06:16:26;21.88;;;16.95;;
21018;SDS011;10667;51.056;3.732;2022-09-03T06:18:52;20.98;;;16.77;;
21018;SDS011;10667;51.056;3.732;2022-09-03T06:21:18;19.92;;;17.23;;
21018;SDS011;10667;51.056;3.732;2022-09-03T06:23:47;18.88;;;16.02;;
21018;SDS011;10667;51.056;3.732;2022-09-03T06:26:15;18.13;;;16.05;;
21018;SDS011;10667;51.056;3.732;2022-09-03T06:28:43;19.30;;;16.45;;
21018;SDS011;10667;51.056;3.732;2022-09-03T06:31:10;20.25;;;16.80;;
21018;SDS011;10667;51.056;3.732;2022-09-03T06:33:37;19.75;;;16.38;;
21018;SDS011;10667;51.056;3.732;2022-09-03T06:36:05;17.48;;;14.90;;
21018;SDS011;10667;51.056;3.732;2022-09-03T06:38:33;21.95;;;16.35;;
21018;SDS011;10667;51.056;3.732;2022-09-03T06:41:01;22.30;;;16.08;;
21018;SDS011;10667;51.056;3.732;2022-09-03T06:43:29;21.60;;;16.70;;
21018;SDS011;10667;51.056;3.732;2022-09-03T06:45:58;23.63;;;17.08;;
21018;SDS011;10667;51.056;3.732;2022-09-03T06:48:25;18.92;;;15.35;;
21018;SDS011;10667;51.056;3.732;2022-09-03T06:50:56;21.92;;;16.38;;
21018;SDS011;10667;51.056;3.732;2022-09-03T06:53:23;21.23;;;16.85;;
21018;SDS011;10667;51.056;3.732;2022-09-03T06:55:55;20.75;;;16.10;;
21018;SDS011;10667;51.056;3.732;2022-09-03T06:58:29;24.40;;;16.67;;
21018;SDS011;10667;51.056;3.732;2022-09-03T07:01:03;22.58;;;16.65;;
21018;SDS011;10667;51.056;3.732;2022-09-03T07:03:33;20.38;;;16.58;;
21018;SDS011;10667;51.056;3.732;2022-09-03T07:06:03;19.40;;;16.80;;
21018;SDS011;10667;51.056;3.732;2022-09-03T07:08:31;19.13;;;16.10;;
21018;SDS011;10667;51.056;3.732;2022-09-03T07:11:01;24.17;;;16.17;;
21018;SDS011;10667;51.056;3.732;2022-09-03T07:13:33;17.70;;;14.60;;
21018;SDS011;10667;51.056;3.732;2022-09-03T07:16:00;16.45;;;14.05;;
21018;SDS011;10667;51.056;3.732;2022-09-03T07:18:28;19.65;;;14.63;;
21018;SDS011;10667;51.056;3.732;2022-09-03T07:21:02;22.67;;;13.95;;
21018;SDS011;10667;51.056;3.732;2022-09-03T07:23:30;16.58;;;12.90;;
21018;SDS011;10667;51.056;3.732;2022-09-03T07:25:58;13.32;;;11.75;;
21018;SDS011;10667;51.056;3.732;2022-09-03T07:28:26;17.85;;;12.48;;
21018;SDS011;10667;51.056;3.732;2022-09-03T07:30:54;15.38;;;12.68;;
21018;SDS011;10667;51.056;3.732;2022-09-03T07:33:27;15.60;;;12.68;;
21018;SDS011;10667;51.056;3.732;2022-09-03T07:35:54;17.00;;;11.30;;
21018;SDS011;10667;51.056;3.732;2022-09-03T07:38:19;12.13;;;10.73;;
21018;SDS011;10667;51.056;3.732;2022-09-03T07:40:47;18.13;;;12.70;;
21018;SDS011;10667;51.056;3.732;2022-09-03T07:43:13;17.77;;;11.77;;
21018;SDS011;10667;51.056;3.732;2022-09-03T07:45:38;16.00;;;12.98;;
21018;SDS011;10667;51.056;3.732;2022-09-03T07:48:04;14.43;;;12.32;;
21018;SDS011;10667;51.056;3.732;2022-09-03T07:50:29;15.93;;;12.98;;
21018;SDS011;10667;51.056;3.732;2022-09-03T07:53:01;18.40;;;14.18;;
21018;SDS011;10667;51.056;3.732;2022-09-03T07:55:27;19.35;;;13.82;;
21018;SDS011;10667;51.056;3.732;2022-09-03T07:57:56;17.98;;;12.95;;
21018;SDS011;10667;51.056;3.732;2022-09-03T08:00:23;16.08;;;12.98;;
21018;SDS011;10667;51.056;3.732;2022-09-03T08:02:52;19.75;;;13.60;;
21018;SDS011;10667;51.056;3.732;2022-09-03T08:05:18;16.35;;;12.88;;
21018;SDS011;10667;51.056;3.732;2022-09-03T08:07:44;18.98;;;12.55;;
21018;SDS011;10667;51.056;3.732;2022-09-03T08:10:10;14.07;;;11.63;;
21018;SDS011;10667;51.056;3.732;2022-09-03T08:12:37;16.33;;;12.32;;
21018;SDS011;10667;51.056;3.732;2022-09-03T08:15:02;15.93;;;13.05;;
21018;SDS011;10667;51.056;3.732;2022-09-03T08:17:29;15.32;;;12.90;;
21018;SDS011;10667;51.056;3.732;2022-09-03T08:19:54;15.55;;;12.85;;
21018;SDS011;10667;51.056;3.732;2022-09-03T08:22:21;12.90;;;11.55;;
21018;SDS011;10667;51.056;3.732;2022-09-03T08:24:49;14.73;;;11.63;;
21018;SDS011;10667;51.056;3.732;2022-09-03T08:27:15;14.80;;;11.45;;
21018;SDS011;10667;51.056;3.732;2022-09-03T08:29:41;13.35;;;11.40;;
21018;SDS011;10667;51.056;3.732;2022-09-03T08:32:07;12.43;;;11.05;;
21018;SDS011;10667;51.056;3.732;2022-09-03T08:34:32;12.45;;;11.02;;
21018;SDS011;10667;51.056;3.732;2022-09-03T08:36:58;12.15;;;10.35;;
21018;SDS011;10667;51.056;3.732;2022-09-03T08:39:25;16.40;;;12.02;;
21018;SDS011;10667;51.056;3.732;2022-09-03T08:47:13;13.07;;;11.23;;
21018;SDS011;10667;51.056;3.732;2022-09-03T08:52:23;15.52;;;11.80;;
21018;SDS011;10667;51.056;3.732;2022-09-03T08:54:54;15.88;;;12.52;;
21018;SDS011;10667;51.056;3.732;2022-09-03T08:57:27;17.80;;;12.70;;
21018;SDS011;10667;51.056;3.732;2022-09-03T09:00:01;16.08;;;11.40;;
21018;SDS011;10667;51.056;3.732;2022-09-03T09:05:31;14.05;;;11.10;;
21018;SDS011;10667;51.056;3.732;2022-09-03T09:08:15;14.43;;;10.18;;
21018;SDS011;10667;51.056;3.732;2022-09-03T09:10:53;14.63;;;10.52;;
21018;SDS011;10667;51.056;3.732;2022-09-03T09:13:49;13.68;;;10.98;;
21018;SDS011;10667;51.056;3.732;2022-09-03T09:16:29;15.25;;;10.88;;
21018;SDS011;10667;51.056;3.732;2022-09-03T09:21:30;15.90;;;11.40;;
21018;SDS011;10667;51.056;3.732;2022-09-03T09:24:03;11.27;;;9.48;;
21018;SDS011;10667;51.056;3.732;2022-09-03T09:26:36;11.23;;;9.65;;
21018;SDS011;10667;51.056;3.732;2022-09-03T09:29:06;12.40;;;9.65;;
21018;SDS011;10667;51.056;3.732;2022-09-03T09:31:34;14.73;;;10.50;;
21018;SDS011;10667;51.056;3.732;2022-09-03T09:34:03;19.23;;;10.55;;
21018;SDS011;10667;51.056;3.732;2022-09-03T09:36:31;17.05;;;10.85;;
21018;SDS011;10667;51.056;3.732;2022-09-03T09:39:09;15.85;;;11.15;;
21018;SDS011;10667;51.056;3.732;2022-09-03T09:41:36;12.73;;;9.52;;
21018;SDS011;10667;51.056;3.732;2022-09-03T09:44:02;14.75;;;10.20;;
21018;SDS011;10667;51.056;3.732;2022-09-03T09:46:37;14.45;;;10.10;;
21018;SDS011;10667;51.056;3.732;2022-09-03T09:49:23;13.98;;;10.77;;
21018;SDS011;10667;51.056;3.732;2022-09-03T09:52:00;15.02;;;9.55;;
21018;SDS011;10667;51.056;3.732;2022-09-03T09:54:49;11.10;;;9.65;;
21018;SDS011;10667;51.056;3.732;2022-09-03T09:57:23;11.52;;;10.35;;
21018;SDS011;10667;51.056;3.732;2022-09-03T09:59:49;13.25;;;10.18;;
21018;SDS011;10667;51.056;3.732;2022-09-03T10:02:30;11.68;;;10.48;;
21018;SDS011;10667;51.056;3.732;2022-09-03T10:05:18;12.60;;;9.50;;
21018;SDS011;10667;51.056;3.732;2022-09-03T10:08:17;13.75;;;9.35;;
21018;SDS011;10667;51.056;3.732;2022-09-03T10:10:47;14.98;;;10.05;;
21018;SDS011;10667;51.056;3.732;2022-09-03T10:13:21;13.10;;;10.18;;
21018;SDS011;10667;51.056;3.732;2022-09-03T10:15:57;10.57;;;8.48;;
21018;SDS011;10667;51.056;3.732;2022-09-03T10:21:11;10.85;;;8.57;;
21018;SDS011;10667;51.056;3.732;2022-09-03T10:26:40;11.23;;;8.48;;
21018;SDS011;10667;51.056;3.732;2022-09-03T10:29:08;9.45;;;6.95;;
21018;SDS011;10667;51.056;3.732;2022-09-03T10:34:22;13.05;;;7.97;;
21018;SDS011;10667;51.056;3.732;2022-09-03T10:37:01;7.93;;;6.55;;
21018;SDS011;10667;51.056;3.732;2022-09-03T10:39:41;12.32;;;8.30;;
21018;SDS011;10667;51.056;3.732;2022-09-03T10:42:36;8.52;;;7.63;;
21018;SDS011;10667;51.056;3.732;2022-09-03T10:47:58;8.13;;;6.47;;
21018;SDS011;10667;51.056;3.732;2022-09-03T10:50:32;8.60;;;6.90;;
21018;SDS011;10667;51.056;3.732;2022-09-03T11:05:13;9.00;;;6.07;;
21018;SDS011;10667;51.056;3.732;2022-09-03T11:10:24;6.45;;;5.72;;
21018;SDS011;10667;51.056;3.732;2022-09-03T11:13:07;10.20;;;7.07;;
21018;SDS011;10667;51.056;3.732;2022-09-03T11:15:47;11.32;;;6.63;;
21018;SDS011;10667;51.056;3.732;2022-09-03T11:18:23;12.65;;;8.63;;
21018;SDS011;10667;51.056;3.732;2022-09-03T11:21:13;10.90;;;7.53;;
21018;SDS011;10667;51.056;3.732;2022-09-03T11:23:43;8.05;;;7.18;;
21018;SDS011;10667;51.056;3.732;2022-09-03T11:26:12;9.65;;;7.30;;
21018;SDS011;10667;51.056;3.732;2022-09-03T11:28:49;9.20;;;7.53;;
21018;SDS011;10667;51.056;3.732;2022-09-03T11:31:54;8.65;;;6.15;;
21018;SDS011;10667;51.056;3.732;2022-09-03T11:34:26;7.95;;;6.15;;
21018;SDS011;10667;51.056;3.732;2022-09-03T11:37:05;7.57;;;6.22;;
21018;SDS011;10667;51.056;3.732;2022-09-03T11:39:42;7.25;;;5.78;;
21018;SDS011;10667;51.056;3.732;2022-09-03T11:42:10;8.57;;;6.25;;
21018;SDS011;10667;51.056;3.732;2022-09-03T11:44:45;9.50;;;6.93;;
21018;SDS011;10667;51.056;3.732;2022-09-03T11:47:36;10.45;;;6.45;;
21018;SDS011;10667;51.056;3.732;2022-09-03T11:50:07;8.18;;;7.05;;
21018;SDS011;10667;51.056;3.732;2022-09-03T11:52:45;11.93;;;7.95;;
21018;SDS011;10667;51.056;3.732;2022-09-03T11:55:29;9.07;;;6.72;;
21018;SDS011;10667;51.056;3.732;2022-09-03T11:57:57;7.75;;;5.57;;
21018;SDS011;10667;51.056;3.732;2022-09-03T12:00:44;5.38;;;4.68;;
21018;SDS011;10667;51.056;3.732;2022-09-03T12:03:12;4.90;;;4.40;;
21018;SDS011;10667;51.056;3.732;2022-09-03T12:05:46;7.82;;;5.35;;
21018;SDS011;10667;51.056;3.732;2022-09-03T12:08:45;6.13;;;5.18;;
21018;SDS011;10667;51.056;3.732;2022-09-03T12:17:10;13.98;;;6.25;;
21018;SDS011;10667;51.056;3.732;2022-09-03T12:19:40;8.98;;;5.60;;
21018;SDS011;10667;51.056;3.732;2022-09-03T12:22:15;5.90;;;5.05;;
21018;SDS011;10667;51.056;3.732;2022-09-03T12:24:42;7.45;;;5.97;;
21018;SDS011;10667;51.056;3.732;2022-09-03T12:27:17;7.20;;;4.88;;
21018;SDS011;10667;51.056;3.732;2022-09-03T12:29:58;9.88;;;5.43;;
21018;SDS011;10667;51.056;3.732;2022-09-03T12:32:29;6.85;;;5.85;;
21018;SDS011;10667;51.056;3.732;2022-09-03T12:37:56;8.90;;;6.05;;
21018;SDS011;10667;51.056;3.732;2022-09-03T12:40:26;8.02;;;5.63;;
21018;SDS011;10667;51.056;3.732;2022-09-03T12:42:53;8.70;;;7.55;;
21018;SDS011;10667;51.056;3.732;2022-09-03T12:45:25;10.43;;;7.50;;
21018;SDS011;10667;51.056;3.732;2022-09-03T12:47:51;6.82;;;6.20;;
21018;SDS011;10667;51.056;3.732;2022-09-03T12:50:18;5.53;;;5.03;;
21018;SDS011;10667;51.056;3.732;2022-09-03T12:52:47;10.57;;;6.40;;
21018;SDS011;10667;51.056;3.732;2022-09-03T12:58:24;7.57;;;6.22;;
21018;SDS011;10667;51.056;3.732;2022-09-03T13:00:55;8.00;;;5.20;;
21018;SDS011;10667;51.056;3.732;2022-09-03T13:06:14;6.25;;;4.00;;
21018;SDS011;10667;51.056;3.732;2022-09-03T13:08:45;7.85;;;5.43;;
21018;SDS011;10667;51.056;3.732;2022-09-03T13:11:15;7.28;;;4.97;;
21018;SDS011;10667;51.056;3.732;2022-09-03T13:14:03;5.80;;;4.70;;
21018;SDS011;10667;51.056;3.732;2022-09-03T13:28:02;5.72;;;3.95;;
21018;SDS011;10667;51.056;3.732;2022-09-03T13:30:51;5.40;;;3.88;;
21018;SDS011;10667;51.056;3.732;2022-09-03T13:34:00;5.88;;;3.70;;
21018;SDS011;10667;51.056;3.732;2022-09-03T13:36:23;5.63;;;3.72;;
21018;SDS011;10667;51.056;3.732;2022-09-03T13:38:56;4.35;;;3.83;;
21018;SDS011;10667;51.056;3.732;2022-09-03T13:47:16;7.88;;;4.13;;
21018;SDS011;10667;51.056;3.732;2022-09-03T13:50:03;4.05;;;3.65;;
21018;SDS011;10667;51.056;3.732;2022-09-03T13:55:25;6.10;;;3.65;;
21018;SDS011;10667;51.056;3.732;2022-09-03T14:00:30;5.63;;;3.28;;
21018;SDS011;10667;51.056;3.732;2022-09-03T14:03:06;9.82;;;3.85;;
21018;SDS011;10667;51.056;3.732;2022-09-03T14:05:37;4.72;;;4.15;;
21018;SDS011;10667;51.056;3.732;2022-09-03T14:11:58;3.35;;;3.10;;
21018;SDS011;10667;51.056;3.732;2022-09-03T14:17:18;5.63;;;4.35;;
21018;SDS011;10667;51.056;3.732;2022-09-03T14:19:59;4.95;;;4.30;;
21018;SDS011;10667;51.056;3.732;2022-09-03T14:22:42;4.95;;;3.67;;
21018;SDS011;10667;51.056;3.732;2022-09-03T14:25:11;3.97;;;3.30;;
21018;SDS011;10667;51.056;3.732;2022-09-03T14:27:43;2.95;;;2.75;;
21018;SDS011;10667;51.056;3.732;2022-09-03T14:32:47;6.03;;;2.85;;
21018;SDS011;10667;51.056;3.732;2022-09-03T14:38:07;4.95;;;2.78;;
21018;SDS011;10667;51.056;3.732;2022-09-03T14:41:05;3.80;;;2.58;;
21018;SDS011;10667;51.056;3.732;2022-09-03T14:44:03;3.97;;;2.83;;
21018;SDS011;10667;51.056;3.732;2022-09-03T14:52:06;2.22;;;2.00;;
21018;SDS011;10667;51.056;3.732;2022-09-03T14:54:48;2.55;;;2.28;;
21018;SDS011;10667;51.056;3.732;2022-09-03T15:08:53;2.50;;;2.30;;
21018;SDS011;10667;51.056;3.732;2022-09-03T15:11:42;2.38;;;2.10;;
21018;SDS011;10667;51.056;3.732;2022-09-03T15:14:29;3.40;;;2.40;;
21018;SDS011;10667;51.056;3.732;2022-09-03T15:17:28;6.00;;;2.30;;
21018;SDS011;10667;51.056;3.732;2022-09-03T15:25:57;2.95;;;2.50;;
21018;SDS011;10667;51.056;3.732;2022-09-03T15:36:43;2.30;;;2.10;;
21018;SDS011;10667;51.056;3.732;2022-09-03T15:39:23;4.53;;;2.60;;
21018;SDS011;10667;51.056;3.732;2022-09-03T15:41:56;2.83;;;2.08;;
21018;SDS011;10667;51.056;3.732;2022-09-03T15:44:34;5.97;;;2.80;;
21018;SDS011;10667;51.056;3.732;2022-09-03T15:47:13;3.28;;;2.55;;
21018;SDS011;10667;51.056;3.732;2022-09-03T15:50:14;3.58;;;2.20;;
21018;SDS011;10667;51.056;3.732;2022-09-03T15:55:39;2.55;;;2.33;;
21018;SDS011;10667;51.056;3.732;2022-09-03T16:06:35;3.40;;;2.40;;
21018;SDS011;10667;51.056;3.732;2022-09-03T16:15:04;3.42;;;2.60;;
21018;SDS011;10667;51.056;3.732;2022-09-03T16:17:56;2.40;;;2.10;;
21018;SDS011;10667;51.056;3.732;2022-09-03T16:23:29;4.63;;;2.33;;
21018;SDS011;10667;51.056;3.732;2022-09-03T16:25:59;4.82;;;2.70;;
21018;SDS011;10667;51.056;3.732;2022-09-03T16:28:35;3.83;;;2.95;;
21018;SDS011;10667;51.056;3.732;2022-09-03T16:44:57;4.00;;;3.60;;
21018;SDS011;10667;51.056;3.732;2022-09-03T16:59:05;3.50;;;3.20;;
21018;SDS011;10667;51.056;3.732;2022-09-03T17:09:33;3.50;;;3.10;;
21018;SDS011;10667;51.056;3.732;2022-09-03T17:12:04;4.35;;;2.90;;
21018;SDS011;10667;51.056;3.732;2022-09-03T17:20:36;7.68;;;3.33;;
21018;SDS011;10667;51.056;3.732;2022-09-03T17:25:53;3.97;;;3.58;;
21018;SDS011;10667;51.056;3.732;2022-09-03T17:40:03;5.63;;;3.65;;
21018;SDS011;10667;51.056;3.732;2022-09-03T17:53:43;4.03;;;3.10;;
21018;SDS011;10667;51.056;3.732;2022-09-03T17:56:18;5.40;;;3.28;;
21018;SDS011;10667;51.056;3.732;2022-09-03T18:02:51;3.78;;;2.70;;
21018;SDS011;10667;51.056;3.732;2022-09-03T18:18:41;2.83;;;2.50;;
21018;SDS011;10667;51.056;3.732;2022-09-03T18:21:22;2.67;;;2.38;;
21018;SDS011;10667;51.056;3.732;2022-09-03T18:24:24;2.78;;;2.25;;
21018;SDS011;10667;51.056;3.732;2022-09-03T18:27:56;3.30;;;2.72;;
21018;SDS011;10667;51.056;3.732;2022-09-03T18:30:36;4.95;;;3.22;;
21018;SDS011;10667;51.056;3.732;2022-09-03T18:33:24;3.50;;;3.20;;
21018;SDS011;10667;51.056;3.732;2022-09-03T18:36:09;4.22;;;3.17;;
21018;SDS011;10667;51.056;3.732;2022-09-03T18:39:14;4.32;;;3.20;;
21018;SDS011;10667;51.056;3.732;2022-09-03T18:52:04;5.78;;;3.72;;
21018;SDS011;10667;51.056;3.732;2022-09-03T18:55:18;5.25;;;4.28;;
21018;SDS011;10667;51.056;3.732;2022-09-03T19:01:35;7.45;;;4.82;;
21018;SDS011;10667;51.056;3.732;2022-09-03T19:11:07;5.45;;;3.72;;
21018;SDS011;10667;51.056;3.732;2022-09-03T19:14:12;6.63;;;4.15;;
21018;SDS011;10667;51.056;3.732;2022-09-03T19:17:27;8.02;;;4.95;;
21018;SDS011;10667;51.056;3.732;2022-09-03T19:20:29;6.78;;;4.80;;
21018;SDS011;10667;51.056;3.732;2022-09-03T19:23:15;6.28;;;4.40;;
21018;SDS011;10667;51.056;3.732;2022-09-03T19:26:17;6.43;;;3.92;;
21018;SDS011;10667;51.056;3.732;2022-09-03T19:30:04;4.70;;;3.75;;
21018;SDS011;10667;51.056;3.732;2022-09-03T19:36:08;9.95;;;4.40;;
21018;SDS011;10667;51.056;3.732;2022-09-03T19:42:04;7.65;;;4.28;;
21018;SDS011;10667;51.056;3.732;2022-09-03T19:45:02;5.68;;;4.07;;
21018;SDS011;10667;51.056;3.732;2022-09-03T19:51:07;8.57;;;5.00;;
21018;SDS011;10667;51.056;3.732;2022-09-03T19:53:57;6.97;;;4.25;;
21018;SDS011;10667;51.056;3.732;2022-09-03T19:56:45;6.90;;;3.90;;
21018;SDS011;10667;51.056;3.732;2022-09-03T19:59:33;6.18;;;4.03;;
21018;SDS011;10667;51.056;3.732;2022-09-03T20:02:22;5.88;;;4.20;;
21018;SDS011;10667;51.056;3.732;2022-09-03T20:05:09;6.13;;;4.65;;
21018;SDS011;10667;51.056;3.732;2022-09-03T20:07:58;6.53;;;5.00;;
21018;SDS011;10667;51.056;3.732;2022-09-03T20:10:44;7.00;;;5.40;;
21018;SDS011;10667;51.056;3.732;2022-09-03T20:13:14;6.93;;;5.05;;
21018;SDS011;10667;51.056;3.732;2022-09-03T20:16:00;6.80;;;4.97;;
21018;SDS011;10667;51.056;3.732;2022-09-03T20:21:45;5.45;;;4.38;;
21018;SDS011;10667;51.056;3.732;2022-09-03T20:24:37;7.28;;;5.28;;
21018;SDS011;10667;51.056;3.732;2022-09-03T20:30:11;5.70;;;4.97;;
21018;SDS011;10667;51.056;3.732;2022-09-03T20:32:53;6.68;;;5.15;;
21018;SDS011;10667;51.056;3.732;2022-09-03T20:38:32;8.68;;;6.25;;
21018;SDS011;10667;51.056;3.732;2022-09-03T20:41:16;8.63;;;5.72;;
21018;SDS011;10667;51.056;3.732;2022-09-03T21:02:20;10.57;;;6.85;;